.
WxDataArchive / Data Records for 2015-08-25
2015-08-24 August 2015 2015-08-26

Data Records for Tuesday, 25 August 2015

Time	Temp	Chill	HIndex	Humid	Dewpt	 Wind 	HiWind	WindDir	Rain 	Barom
-----	----	-----	------	-----	-----	------	------	-------	-----	-----
00:00	63.2	63.2	63.2	70	53.2	0	3	292	0.00	29.902 
00:05	63.1	63.1	63.1	72	53.9	0	1	292	0.00	29.902 
00:10	62.7	62.7	62.7	72	53.5	0	2	292	0.00	29.902 
00:15	62.4	62.4	62.4	72	53.2	0	1	292	0.00	29.902 
00:20	62.4	62.4	62.4	72	53.2	0	2	292	0.00	29.902 
00:25	62.4	62.4	62.4	72	53.2	0	3	292	0.00	29.902 
00:30	62.3	62.3	62.3	72	53.2	0	1	292	0.00	29.908 
00:35	62.3	62.3	62.3	72	53.2	0	0	---	0.00	29.908 
00:40	62.1	62.1	62.1	72	53.0	0	1	292	0.00	29.908 
00:45	62.1	62.1	62.1	72	53.0	0	1	292	0.00	29.912 
00:50	62.1	62.1	62.1	72	53.0	0	1	292	0.00	29.912 
00:55	62.1	62.1	62.1	73	53.3	0	1	292	0.00	29.912 
01:00	62.0	62.0	62.0	73	53.2	0	1	292	0.00	29.914 
01:05	62.0	62.0	62.0	73	53.2	0	1	292	0.00	29.914 
01:10	62.0	62.0	62.0	73	53.2	0	1	292	0.00	29.914 
01:15	62.0	62.0	62.0	73	53.2	0	1	292	0.00	29.913 
01:20	61.8	61.8	61.8	73	53.0	0	0	---	0.00	29.913 
01:25	61.8	61.8	61.8	73	53.0	0	0	---	0.00	29.913 
01:30	61.8	61.8	61.8	73	53.0	0	1	292	0.00	29.913 
01:35	61.8	61.8	61.8	72	52.7	0	1	292	0.00	29.913 
01:40	61.8	61.8	61.8	72	52.7	0	1	292	0.00	29.913 
01:45	61.8	61.8	61.8	72	52.7	0	1	292	0.00	29.913 
01:50	61.8	61.8	61.8	71	52.3	0	1	292	0.00	29.913 
01:55	61.8	61.8	61.8	71	52.3	0	1	292	0.00	29.913 
02:00	61.8	61.8	61.8	72	52.7	0	0	---	0.00	29.910 
02:05	61.8	61.8	61.8	72	52.7	0	0	---	0.00	29.910 
02:10	61.6	61.6	61.6	72	52.5	0	0	---	0.00	29.910 
02:15	61.5	61.5	61.5	72	52.4	0	1	292	0.00	29.908 
02:20	61.3	61.3	61.3	72	52.2	0	1	292	0.00	29.908 
02:25	61.3	61.3	61.3	72	52.2	0	1	292	0.00	29.908 
02:30	61.2	61.2	61.2	72	52.1	0	1	292	0.00	29.904 
02:35	61.2	61.2	61.2	72	52.1	0	1	292	0.00	29.904 
02:40	60.9	60.9	60.9	72	51.8	0	1	292	0.00	29.904 
02:45	60.9	60.9	60.9	71	51.4	0	1	292	0.00	29.907 
02:50	60.7	60.7	60.7	70	50.9	0	1	292	0.00	29.907 
02:55	60.7	60.7	60.7	69	50.5	0	2	292	0.00	29.907 
03:00	60.5	60.5	60.5	69	50.3	0	2	292	0.00	29.905 
03:05	60.5	60.5	60.5	69	50.3	0	2	292	0.00	29.905 
03:10	60.4	60.4	60.4	69	50.2	0	1	292	0.00	29.905 
03:15	60.2	60.2	60.2	70	50.4	0	1	292	0.00	29.908 
03:20	60.1	60.1	60.1	71	50.7	0	1	292	0.00	29.908 
03:25	59.9	59.9	59.9	72	50.8	0	1	292	0.00	29.908 
03:30	59.6	59.6	59.6	73	50.9	0	0	---	0.00	29.909 
03:35	59.5	59.5	59.5	74	51.2	0	1	292	0.00	29.909 
03:40	59.2	59.2	59.2	73	50.5	0	3	292	0.00	29.909 
03:45	59.0	59.0	59.0	72	50.0	0	2	292	0.00	29.908 
03:50	58.9	58.9	58.9	71	49.5	0	3	292	0.00	29.908 
03:55	58.9	58.9	58.9	70	49.1	0	2	292	0.00	29.908 
04:00	58.7	58.7	58.7	70	48.9	0	1	292	0.00	29.910 
04:05	58.6	58.6	58.6	70	48.8	0	1	292	0.00	29.910 
04:10	58.3	58.3	58.3	71	48.9	0	1	292	0.00	29.910 
04:15	58.1	58.1	58.1	71	48.7	0	1	292	0.00	29.907 
04:20	58.0	58.0	58.0	72	49.0	0	1	292	0.00	29.907 
04:25	57.8	57.8	57.8	72	48.8	0	1	292	0.00	29.907 
04:30	58.0	58.0	58.0	72	49.0	0	1	292	0.00	29.904 
04:35	58.1	58.1	58.1	72	49.1	0	1	292	0.00	29.904 
04:40	58.3	58.3	58.3	71	48.9	0	2	292	0.00	29.904 
04:45	58.4	58.4	58.4	71	49.0	0	2	292	0.00	29.907 
04:50	58.4	58.4	58.4	71	49.0	0	3	292	0.00	29.907 
04:55	58.6	58.6	58.6	70	48.8	0	2	292	0.00	29.907 
05:00	58.7	58.7	58.7	70	48.9	0	2	292	0.00	29.909 
05:05	58.7	58.7	58.7	69	48.6	0	2	292	0.00	29.909 
05:10	58.9	58.9	58.9	69	48.7	0	1	292	0.00	29.909 
05:15	58.9	58.9	58.9	69	48.7	0	1	292	0.00	29.910 
05:20	58.9	58.9	58.9	69	48.7	0	3	292	0.00	29.910 
05:25	59.0	59.0	59.0	68	48.5	0	2	292	0.00	29.910 
05:30	59.0	59.0	59.0	69	48.8	0	1	292	0.00	29.914 
05:35	59.0	59.0	59.0	68	48.5	0	2	292	0.00	29.914 
05:40	59.2	59.2	59.2	68	48.6	0	1	292	0.00	29.914 
05:45	59.2	59.2	59.2	68	48.6	0	2	292	0.00	29.913 
05:50	59.2	59.2	59.2	69	49.0	0	0	---	0.00	29.913 
05:55	59.2	59.2	59.2	69	49.0	0	2	292	0.00	29.913 
06:00	59.2	59.2	59.2	69	49.0	0	1	292	0.00	29.915 
06:05	59.2	59.2	59.2	69	49.0	0	1	292	0.00	29.915 
06:10	59.2	59.2	59.2	69	49.0	0	1	292	0.00	29.915 
06:15	59.2	59.2	59.2	69	49.0	0	1	292	0.00	29.917 
06:20	59.0	59.0	59.0	68	48.5	0	1	292	0.00	29.917 
06:25	59.2	59.2	59.2	68	48.6	0	3	292	0.00	29.917 
06:30	59.2	59.2	59.2	68	48.6	0	1	292	0.00	29.920 
06:35	59.2	59.2	59.2	68	48.6	0	1	292	0.00	29.920 
06:40	59.2	59.2	59.2	69	49.0	0	1	292	0.00	29.920 
06:45	59.2	59.2	59.2	69	49.0	0	1	292	0.00	29.927 
06:50	59.0	59.0	59.0	69	48.8	0	2	292	0.00	29.927 
06:55	59.0	59.0	59.0	69	48.8	0	1	292	0.00	29.927 
07:00	59.0	59.0	59.0	69	48.8	0	1	292	0.00	29.931 
07:05	59.2	59.2	59.2	69	49.0	0	1	292	0.00	29.931 
07:10	59.0	59.0	59.0	69	48.8	0	1	292	0.00	29.931 
07:15	59.0	59.0	59.0	69	48.8	0	1	292	0.00	29.934 
07:20	59.0	59.0	59.0	69	48.8	0	1	292	0.00	29.934 
07:25	59.0	59.0	59.0	69	48.8	0	1	292	0.00	29.934 
07:30	59.0	59.0	59.0	69	48.8	0	1	292	0.00	29.934 
07:35	59.0	59.0	59.0	69	48.8	0	1	292	0.00	29.934 
07:40	59.0	59.0	59.0	69	48.8	0	1	292	0.00	29.934 
07:45	59.0	59.0	59.0	69	48.8	0	0	---	0.00	29.937 
07:50	59.0	59.0	59.0	69	48.8	0	0	---	0.00	29.937 
07:55	59.0	59.0	59.0	69	48.8	0	0	---	0.00	29.937 
08:00	59.2	59.2	59.2	69	49.0	0	1	292	0.00	29.941 
08:05	59.2	59.2	59.2	68	48.6	0	2	292	0.00	29.941 
08:10	59.2	59.2	59.2	68	48.6	0	2	292	0.00	29.941 
08:15	59.2	59.2	59.2	68	48.6	0	1	292	0.00	29.944 
08:20	59.3	59.3	59.3	68	48.7	0	2	292	0.00	29.944 
08:25	59.3	59.3	59.3	68	48.7	0	1	292	0.00	29.944 
08:30	59.5	59.5	59.5	68	48.9	0	1	292	0.00	29.944 
08:35	59.5	59.5	59.5	68	48.9	0	1	292	0.00	29.944 
08:40	59.5	59.5	59.5	68	48.9	0	1	292	0.00	29.944 
08:45	59.6	59.6	59.6	68	49.0	0	2	292	0.00	29.946 
08:50	59.6	59.6	59.6	67	48.6	0	2	292	0.00	29.946 
08:55	59.6	59.6	59.6	68	49.0	0	1	292	0.00	29.946 
09:00	59.6	59.6	59.6	67	48.6	0	2	292	0.00	29.949 
09:05	59.6	59.6	59.6	67	48.6	0	2	292	0.00	29.949 
09:10	59.8	59.8	59.8	67	48.8	0	1	292	0.00	29.949 
09:15	59.8	59.8	59.8	67	48.8	0	1	292	0.00	29.952 
09:20	59.8	59.8	59.8	67	48.8	0	2	292	0.00	29.952 
09:25	59.8	59.8	59.8	67	48.8	0	2	292	0.00	29.952 
09:30	59.9	59.9	59.9	67	48.9	0	1	292	0.00	29.952 
09:35	59.9	59.9	59.9	67	48.9	0	0	---	0.00	29.952 
09:40	59.9	59.9	59.9	67	48.9	0	1	292	0.00	29.952 
09:45	60.1	60.1	60.1	67	49.1	0	1	292	0.00	29.957 
09:50	60.1	60.1	60.1	67	49.1	0	1	292	0.00	29.957 
09:55	60.1	60.1	60.1	67	49.1	0	1	292	0.00	29.957 
10:00	60.1	60.1	60.1	67	49.1	0	1	292	0.00	29.962 
10:05	60.2	60.2	60.2	66	48.8	0	2	292	0.00	29.962 
10:10	60.2	60.2	60.2	66	48.8	1	5	315	0.00	29.962 
10:15	60.4	60.4	60.4	67	49.4	0	1	315	0.00	29.966 
10:20	60.5	60.5	60.5	68	49.9	0	1	315	0.00	29.966 
10:25	60.7	60.7	60.7	68	50.1	0	1	315	0.00	29.966 
10:30	60.9	60.9	60.9	67	49.9	0	1	315	0.00	29.967 
10:35	60.9	60.9	60.9	67	49.9	0	1	315	0.00	29.967 
10:40	61.0	61.0	61.0	67	50.0	0	1	315	0.00	29.967 
10:45	61.2	61.2	61.2	67	50.2	0	2	315	0.00	29.968 
10:50	61.3	61.3	61.3	66	49.8	1	3	315	0.00	29.968 
10:55	61.2	61.2	61.2	66	49.7	1	4	315	0.00	29.968 
11:00	61.3	61.3	61.3	66	49.8	0	2	292	0.00	29.973 
11:05	61.5	61.5	61.5	67	50.4	0	3	292	0.00	29.973 
11:10	61.6	61.6	61.6	66	50.1	1	4	270	0.00	29.973 
11:15	61.6	61.6	61.6	65	49.7	1	3	270	0.00	29.979 
11:20	61.6	61.6	61.6	65	49.7	1	4	315	0.00	29.979 
11:25	61.8	61.8	61.8	66	50.3	1	5	315	0.00	29.979 
11:30	61.8	61.8	61.8	65	49.9	1	3	292	0.00	29.985 
11:35	61.8	61.8	61.8	65	49.9	0	2	292	0.00	29.985 
11:40	61.8	61.8	61.8	65	49.9	1	4	292	0.00	29.985 
11:45	61.8	61.8	61.8	65	49.9	0	2	292	0.00	29.984 
11:50	62.0	62.0	62.0	64	49.7	1	4	292	0.00	29.984 
11:55	62.1	62.1	62.1	64	49.8	1	3	292	0.00	29.984 
12:00	62.3	62.3	62.3	63	49.5	2	4	292	0.00	29.984 
12:05	62.3	62.3	62.3	64	50.0	1	4	292	0.00	29.984 
12:10	62.4	62.4	62.4	64	50.1	1	3	315	0.00	29.984 
12:15	62.4	62.4	62.4	63	49.6	2	6	292	0.00	29.984 
12:20	62.6	62.6	62.6	64	50.2	1	4	292	0.00	29.984 
12:25	62.7	62.7	62.7	63	49.9	2	5	292	0.00	29.984 
12:30	62.7	62.7	62.7	64	50.3	3	4	292	0.00	29.984 
12:35	62.7	62.7	62.7	64	50.3	1	4	292	0.00	29.984 
12:40	62.7	62.7	62.7	64	50.3	1	4	292	0.00	29.984 
12:45	62.7	62.7	62.7	64	50.3	1	4	292	0.00	29.984 
12:50	62.7	62.7	62.7	64	50.3	2	6	270	0.00	29.984 
12:55	62.9	62.9	62.9	65	50.9	1	3	270	0.00	29.984 
13:00	62.7	62.7	62.7	65	50.8	1	3	270	0.00	29.983 
13:05	62.9	62.9	62.9	65	50.9	2	6	338	0.00	29.983 
13:10	63.1	63.1	63.1	64	50.7	2	5	292	0.00	29.983 
13:15	63.1	63.1	63.1	64	50.7	2	5	270	0.00	29.979 
13:20	63.2	63.2	63.2	64	50.8	1	4	270	0.00	29.979 
13:25	63.4	63.4	63.4	64	51.0	1	3	270	0.00	29.979 
13:30	63.5	63.5	63.5	63	50.7	2	4	270	0.00	29.978 
13:35	63.5	63.5	63.5	64	51.1	1	3	270	0.00	29.978 
13:40	63.5	63.5	63.5	63	50.7	1	2	270	0.00	29.978 
13:45	63.4	63.4	63.4	64	51.0	0	1	270	0.00	29.975 
13:50	63.5	63.5	63.5	64	51.1	0	4	270	0.00	29.975 
13:55	63.7	63.7	63.7	63	50.9	2	4	270	0.00	29.975 
14:00	63.5	63.5	63.5	64	51.1	1	4	270	0.00	29.970 
14:05	63.4	63.4	63.4	63	50.6	1	3	270	0.00	29.970 
14:10	63.4	63.4	63.4	64	51.0	0	1	270	0.00	29.970 
14:15	63.2	63.2	63.2	65	51.2	0	2	270	0.00	29.971 
14:20	63.4	63.4	63.4	65	51.4	1	3	270	0.00	29.971 
14:25	63.5	63.5	63.5	65	51.5	0	2	270	0.00	29.971 
14:30	63.7	63.7	63.7	65	51.7	0	2	270	0.00	29.970 
14:35	63.9	63.9	63.9	65	51.9	0	2	270	0.00	29.970 
14:40	64.0	64.0	64.0	65	52.0	0	2	270	0.00	29.970 
14:45	64.2	64.2	64.2	64	51.8	1	3	270	0.00	29.972 
14:50	64.3	64.3	64.3	64	51.9	1	4	270	0.00	29.972 
14:55	64.3	64.3	64.3	65	52.3	1	3	270	0.00	29.972 
15:00	64.3	64.3	64.3	64	51.9	1	3	270	0.00	29.975 
15:05	64.5	64.5	64.5	63	51.6	1	5	270	0.00	29.975 
15:10	64.5	64.5	64.5	62	51.2	3	6	270	0.00	29.975 
15:15	64.3	64.3	64.3	63	51.4	1	6	338	0.00	29.981 
15:20	64.5	64.5	64.5	65	52.5	1	4	338	0.00	29.981 
15:25	64.5	64.5	64.5	64	52.0	1	4	338	0.00	29.981 
15:30	64.8	64.8	64.8	62	51.5	1	3	315	0.00	29.975 
15:35	64.8	64.8	64.8	62	51.5	2	6	315	0.00	29.975 
15:40	64.7	64.7	64.7	63	51.8	2	4	315	0.00	29.975 
15:45	64.7	64.7	64.7	63	51.8	1	3	315	0.00	29.975 
15:50	64.5	64.5	64.5	64	52.0	2	5	315	0.00	29.975 
15:55	64.3	64.3	64.3	65	52.3	2	5	292	0.00	29.975 
16:00	64.5	64.5	64.5	65	52.5	2	5	270	0.00	29.978 
16:05	64.5	64.5	64.5	65	52.5	1	5	315	0.00	29.978 
16:10	64.7	64.7	64.7	64	52.2	1	4	315	0.00	29.978 
16:15	64.7	64.7	64.7	63	51.8	2	5	292	0.00	29.978 
16:20	64.8	64.8	64.8	63	51.9	3	6	270	0.00	29.978 
16:25	64.8	64.8	64.8	64	52.3	2	5	270	0.00	29.978 
16:30	65.2	65.2	65.2	63	52.3	3	5	292	0.00	29.973 
16:35	65.5	65.5	65.5	62	52.1	2	6	270	0.00	29.973 
16:40	65.6	65.6	65.6	61	51.8	2	6	292	0.00	29.973 
16:45	65.5	65.5	65.5	62	52.1	2	6	270	0.00	29.972 
16:50	65.5	65.5	65.5	62	52.1	2	6	270	0.00	29.972 
16:55	65.8	65.8	65.8	61	52.0	2	4	315	0.00	29.972 
17:00	66.1	66.1	66.1	61	52.3	2	6	338	0.00	29.971 
17:05	66.8	66.8	66.8	59	52.0	2	5	292	0.00	29.971 
17:10	66.6	66.6	66.6	59	51.8	2	5	292	0.00	29.971 
17:15	66.3	66.3	66.3	59	51.5	1	4	292	0.00	29.974 
17:20	66.0	66.0	66.0	61	52.2	2	5	270	0.00	29.974 
17:25	65.6	65.6	65.6	61	51.8	2	5	315	0.00	29.974 
17:30	65.5	65.5	65.5	61	51.7	2	5	292	0.00	29.978 
17:35	65.5	65.5	65.5	62	52.1	2	5	315	0.00	29.978 
17:40	65.6	65.6	65.6	61	51.8	2	4	292	0.00	29.978 
17:45	65.5	65.5	65.5	61	51.7	2	5	315	0.00	29.982 
17:50	65.6	65.6	65.6	61	51.8	2	4	270	0.00	29.982 
17:55	65.8	65.8	65.8	61	52.0	2	4	270	0.00	29.982 
18:00	66.3	66.3	66.3	59	51.5	3	6	270	0.00	29.984 
18:05	66.1	66.1	66.1	61	52.3	1	4	292	0.00	29.984 
18:10	65.6	65.6	65.6	61	51.8	2	5	292	0.00	29.984 
18:15	65.3	65.3	65.3	61	51.5	2	4	292	0.00	29.985 
18:20	65.0	65.0	65.0	61	51.2	1	5	292	0.00	29.985 
18:25	65.0	65.0	65.0	61	51.2	2	5	315	0.00	29.985 
18:30	65.0	65.0	65.0	62	51.7	1	4	292	0.00	29.987 
18:35	64.8	64.8	64.8	63	51.9	1	4	292	0.00	29.987 
18:40	64.8	64.8	64.8	64	52.3	1	3	292	0.00	29.987 
18:45	64.7	64.7	64.7	64	52.2	1	4	292	0.00	29.996 
18:50	64.3	64.3	64.3	65	52.3	1	3	292	0.00	29.996 
18:55	64.3	64.3	64.3	65	52.3	1	4	292	0.00	29.996 
19:00	64.2	64.2	64.2	65	52.2	1	4	292	0.00	29.998 
19:05	64.0	64.0	64.0	65	52.0	1	4	292	0.00	29.998 
19:10	63.9	63.9	63.9	65	51.9	1	4	315	0.00	29.998 
19:15	63.7	63.7	63.7	66	52.1	1	3	315	0.00	30.000 
19:20	63.7	63.7	63.7	65	51.7	1	3	315	0.00	30.000 
19:25	63.5	63.5	63.5	65	51.5	1	4	315	0.00	30.000 
19:30	63.4	63.4	63.4	65	51.4	1	4	315	0.00	30.001 
19:35	63.2	63.2	63.2	66	51.6	2	6	292	0.00	30.001 
19:40	63.1	63.1	63.1	66	51.6	1	4	315	0.00	30.001 
19:45	63.1	63.1	63.1	67	52.0	0	3	315	0.00	30.001 
19:50	62.9	62.9	62.9	68	52.2	0	2	315	0.00	30.001 
19:55	62.7	62.7	62.7	68	52.0	0	2	315	0.00	30.001 
20:00	62.6	62.6	62.6	67	51.5	1	3	315	0.00	30.002 
20:05	62.6	62.6	62.6	68	51.9	0	2	315	0.00	30.002 
20:10	62.4	62.4	62.4	68	51.7	0	2	315	0.00	30.002 
20:15	62.4	62.4	62.4	69	52.1	0	2	315	0.00	30.002 
20:20	62.3	62.3	62.3	69	52.0	1	5	315	0.00	30.002 
20:25	62.1	62.1	62.1	69	51.8	0	2	338	0.00	30.002 
20:30	62.0	62.0	62.0	70	52.1	0	2	338	0.00	30.005 
20:35	62.0	62.0	62.0	69	51.7	1	4	315	0.00	30.005 
20:40	62.0	62.0	62.0	70	52.1	0	3	315	0.00	30.005 
20:45	61.8	61.8	61.8	70	51.9	0	2	315	0.00	30.008 
20:50	61.8	61.8	61.8	71	52.3	0	2	315	0.00	30.008 
20:55	61.6	61.6	61.6	71	52.1	0	1	315	0.00	30.008 
21:00	61.6	61.6	61.6	71	52.1	0	1	315	0.00	30.016 
21:05	61.6	61.6	61.6	71	52.1	0	1	315	0.00	30.016 
21:10	61.6	61.6	61.6	72	52.5	0	0	---	0.00	30.016 
21:15	61.5	61.5	61.5	71	52.0	0	1	315	0.00	30.020 
21:20	61.5	61.5	61.5	71	52.0	0	1	315	0.00	30.020 
21:25	61.3	61.3	61.3	71	51.8	0	0	---	0.00	30.020 
21:30	61.2	61.2	61.2	71	51.7	0	1	315	0.00	30.023 
21:35	61.2	61.2	61.2	71	51.7	0	1	315	0.00	30.023 
21:40	61.0	61.0	61.0	71	51.5	0	1	315	0.00	30.023 
21:45	61.0	61.0	61.0	72	51.9	0	1	315	0.00	30.029 
21:50	61.0	61.0	61.0	72	51.9	0	1	315	0.00	30.029 
21:55	61.0	61.0	61.0	72	51.9	0	0	---	0.00	30.029 
22:00	60.9	60.9	60.9	72	51.8	0	1	315	0.00	30.033 
22:05	60.9	60.9	60.9	72	51.8	0	1	315	0.00	30.033 
22:10	60.9	60.9	60.9	72	51.8	0	1	315	0.00	30.033 
22:15	60.9	60.9	60.9	73	52.2	0	0	---	0.00	30.033 
22:20	60.7	60.7	60.7	73	52.0	0	0	---	0.00	30.033 
22:25	60.5	60.5	60.5	73	51.8	0	1	315	0.00	30.033 
22:30	60.2	60.2	60.2	73	51.5	0	1	315	0.00	30.033 
22:35	60.1	60.1	60.1	73	51.4	0	1	315	0.00	30.033 
22:40	59.9	59.9	59.9	73	51.2	0	0	---	0.00	30.033 
22:45	59.8	59.8	59.8	74	51.5	0	1	315	0.00	30.034 
22:50	59.6	59.6	59.6	74	51.3	0	0	---	0.00	30.034 
22:55	59.5	59.5	59.5	75	51.6	0	0	---	0.00	30.034 
23:00	59.3	59.3	59.3	75	51.4	0	0	---	0.00	30.035 
23:05	59.2	59.2	59.2	76	51.6	0	0	---	0.00	30.035 
23:10	58.9	58.9	58.9	76	51.3	0	0	---	0.00	30.035 
23:15	58.7	58.7	58.7	77	51.5	0	0	---	0.00	30.033 
23:20	58.4	58.4	58.4	77	51.2	0	0	---	0.00	30.033 
23:25	58.1	58.1	58.1	78	51.3	0	0	---	0.00	30.033 
23:30	58.0	58.0	58.0	78	51.2	0	0	---	0.00	30.036 
23:35	57.6	57.6	57.6	79	51.1	0	0	---	0.00	30.036 
23:40	57.5	57.5	57.5	80	51.4	0	0	---	0.00	30.036 
23:45	57.2	57.2	57.2	81	51.4	0	0	---	0.00	30.037 
23:50	56.9	56.9	56.9	81	51.1	0	0	---	0.00	30.037 
23:55	56.7	56.7	56.7	81	50.9	0	0	---	0.00	30.037 

CoCoRaHS
IN-AL-39
A2 Web Hosting
Creative Commons License
GoDaddy
search engine by freefind advanced

loaded 2018-11-19 20:00:44 • last modified 2010-11-18 10:43:29
Privacy PolicyDisclaimer
• wx.awcolley.com is powered by PmWiki v.2002016 •
• all content (unless otherwise noted) © 2018 A W Colley